Time;durP1;ratioP1;P1;durP2;ratioP2;P2;SDS_P1;SDS_P2;PMS_P1;PMS_P2;Temp;Humidity;BMP_temperature;BMP_pressure;BME280_temperature;BME280_humidity;BME280_pressure;Samples;Min_cycle;Max_cycle;Signal;HPM_P1;HPM_P2
2021/12/13 00:02:23;;;;;;;4.65;3.20;;;;;;;13.64;57.79;102164.91;4998651;28;20057;-84
2021/12/13 00:05:21;;;;;;;5.25;2.95;;;;;;;13.64;57.76;102170.34;5042071;28;20119;-85
2021/12/13 00:07:56;;;;;;;4.82;3.20;;;;;;;13.66;58.04;102165.69;5014276;28;20045;-85
2021/12/13 00:10:33;;;;;;;4.57;2.92;;;;;;;13.66;57.91;102171.16;5033257;28;20123;-85
2021/12/13 00:13:10;;;;;;;5.18;2.80;;;;;;;13.66;57.91;102168.44;5031447;28;20484;-85
2021/12/13 00:15:45;;;;;;;4.18;2.55;;;;;;;13.67;58.35;102167.47;5032628;28;20049;-85
2021/12/13 00:18:17;;;;;;;5.55;3.08;;;;;;;13.66;57.74;102168.44;5030385;28;20485;-84
2021/12/13 00:20:49;;;;;;;4.97;2.90;;;;;;;13.63;57.86;102169.47;5025042;28;20397;-84
2021/12/13 00:23:21;;;;;;;5.00;3.10;;;;;;;13.64;57.95;102167.63;5016863;28;20053;-84
2021/12/13 00:25:52;;;;;;;5.97;3.40;;;;;;;13.63;58.25;102172.19;5023990;28;20053;-85
2021/12/13 00:28:20;;;;;;;5.72;3.00;;;;;;;13.65;57.99;102183.03;5032939;28;20087;-85
2021/12/13 00:31:01;;;;;;;4.90;2.67;;;;;;;13.67;57.79;102173.75;5032773;28;20512;-84
2021/12/13 00:37:50;;;;;;;4.35;2.30;;;;;;;13.62;58.25;102173.16;5029498;28;20048;-84
2021/12/13 00:40:33;;;;;;;4.55;2.63;;;;;;;13.65;58.31;102172.13;5016715;28;20152;-84
2021/12/13 00:43:14;;;;;;;6.20;2.65;;;;;;;13.65;57.93;102177.56;5028505;28;20042;-84
2021/12/13 00:45:53;;;;;;;4.93;2.67;;;;;;;13.67;57.97;102181.94;5024876;28;20053;-84
2021/12/13 00:48:22;;;;;;;4.25;2.70;;;;;;;13.66;57.97;102182.94;5031639;28;20045;-84
2021/12/13 00:51:01;;;;;;;4.82;2.63;;;;;;;13.67;57.99;102181.09;5033129;28;20062;-83
2021/12/13 00:53:33;;;;;;;4.68;2.40;;;;;;;13.68;57.91;102180.09;5032539;28;20054;-84
2021/12/13 00:56:21;;;;;;;4.67;2.50;;;;;;;13.66;57.80;102182.94;5020668;28;20511;-83
2021/12/13 00:58:49;;;;;;;4.55;2.30;;;;;;;13.67;57.80;102181.09;5022249;28;20049;-84
2021/12/13 01:01:16;;;;;;;3.90;2.63;;;;;;;13.69;58.08;102181.88;5032001;28;20045;-84
2021/12/13 01:03:48;;;;;;;4.18;2.45;;;;;;;13.71;58.14;102185.41;5021336;28;20115;-84
2021/12/13 01:06:36;;;;;;;3.90;2.40;;;;;;;13.70;58.24;102183.63;5027432;28;20061;-84
2021/12/13 01:09:44;;;;;;;3.53;2.20;;;;;;;13.62;58.12;102183.19;5023981;28;20095;-84
2021/12/13 01:12:17;;;;;;;4.80;2.55;;;;;;;13.69;58.03;102190.06;5008745;28;20049;-84
2021/12/13 01:14:57;;;;;;;6.13;2.30;;;;;;;13.71;57.81;102188.13;5031537;28;20619;-84
2021/12/13 01:17:54;;;;;;;3.50;2.25;;;;;;;13.70;57.93;102189.97;5032313;28;20053;-84
2021/12/13 01:20:30;;;;;;;4.70;2.42;;;;;;;13.70;57.97;102191.81;5014406;28;20041;-84
2021/12/13 01:23:12;;;;;;;3.78;2.30;;;;;;;13.73;57.81;102190.78;5026262;28;20144;-84
2021/12/13 01:26:13;;;;;;;3.85;2.17;;;;;;;13.73;57.73;102188.94;5030624;28;20045;-84
2021/12/13 01:28:46;;;;;;;3.38;2.10;;;;;;;13.70;57.54;102192.69;5027875;28;20048;-84
2021/12/13 01:31:24;;;;;;;4.07;2.30;;;;;;;13.71;57.92;102188.13;5028109;28;20041;-83
2021/12/13 01:33:54;;;;;;;3.88;2.50;;;;;;;13.71;57.61;102191.72;5033022;28;20107;-84
2021/12/13 01:36:26;;;;;;;4.00;2.17;;;;;;;13.73;57.53;102193.50;5022953;28;20857;-84
2021/12/13 01:38:58;;;;;;;4.40;2.13;;;;;;;13.71;57.50;102188.13;5032726;28;20053;-84
2021/12/13 01:41:38;;;;;;;3.47;2.28;;;;;;;13.73;57.51;102193.50;5019033;28;20105;-84
2021/12/13 01:44:13;;;;;;;3.10;1.90;;;;;;;13.72;57.71;102187.16;5047338;28;20041;-84
2021/12/13 01:46:50;;;;;;;3.97;2.40;;;;;;;13.70;57.60;102189.97;5043974;28;20045;-85
2021/12/13 01:49:19;;;;;;;4.18;2.03;;;;;;;13.71;58.03;102207.22;5026646;28;20140;-84
2021/12/13 01:51:50;;;;;;;3.70;2.38;;;;;;;13.70;57.83;102206.34;5026108;28;20052;-84
2021/12/13 01:54:21;;;;;;;4.57;2.53;;;;;;;13.68;57.97;102205.56;5012958;28;20501;-84
2021/12/13 02:00:43;;;;;;;4.60;2.40;;;;;;;13.68;57.63;102210.13;5024193;28;20033;-84
2021/12/13 02:02:56;;;;;;;4.47;2.70;;;;;;;13.66;57.87;102207.50;5030967;28;20054;-84
2021/12/13 02:09:13;;;;;;;3.92;2.38;;;;;;;13.62;58.19;102208.66;5019474;28;20108;-84
2021/12/13 02:11:42;;;;;;;4.00;2.50;;;;;;;13.65;57.60;102218.50;5013330;28;20045;-84
2021/12/13 02:14:15;;;;;;;3.88;2.53;;;;;;;13.66;57.82;102215.69;5038449;28;20041;-84
2021/12/13 02:17:11;;;;;;;4.57;2.60;;;;;;;13.67;57.74;102214.69;5014731;28;20073;-84
2021/12/13 02:20:00;;;;;;;4.25;2.50;;;;;;;13.63;58.04;102215.88;5028757;28;20067;-84
2021/12/13 02:22:56;;;;;;;4.57;2.90;;;;;;;13.66;57.66;102218.44;5032574;28;20496;-84
2021/12/13 02:25:42;;;;;;;5.10;2.72;;;;;;;13.66;57.88;102204.78;5026280;28;20068;-84
2021/12/13 02:28:17;;;;;;;3.85;2.47;;;;;;;13.66;57.66;102201.16;5024372;28;20076;-84
2021/12/13 02:30:58;;;;;;;4.60;2.60;;;;;;;13.67;57.52;102202.94;5017967;28;20046;-84
2021/12/13 02:33:40;;;;;;;4.25;2.95;;;;;;;13.65;57.74;102204.88;5031944;28;20050;-84
2021/12/13 02:36:22;;;;;;;4.43;2.53;;;;;;;13.65;57.52;102205.75;5029442;28;20096;-84
2021/12/13 02:38:53;;;;;;;5.87;3.10;;;;;;;13.64;58.03;102214.03;5033685;28;20103;-84
2021/12/13 02:41:24;;;;;;;4.75;2.90;;;;;;;13.65;57.49;102216.66;5017958;28;20833;-84
2021/12/13 02:43:54;;;;;;;5.35;2.83;;;;;;;13.65;57.86;102211.22;5031379;28;20046;-84
2021/12/13 02:46:21;;;;;;;4.97;2.70;;;;;;;13.64;57.91;102208.56;5030708;28;20052;-84
2021/12/13 02:48:50;;;;;;;4.80;2.80;;;;;;;13.64;57.73;102203.97;5029307;28;20404;-84
2021/12/13 02:51:32;;;;;;;4.95;2.90;;;;;;;13.65;57.44;102213.06;5035759;28;20144;-84
2021/12/13 02:54:11;;;;;;;5.13;2.97;;;;;;;13.65;57.59;102205.75;5014918;28;20111;-85
2021/12/13 02:56:51;;;;;;;5.53;2.78;;;;;;;13.63;57.47;102210.41;5026727;28;20107;-84
2021/12/13 02:59:21;;;;;;;4.15;2.70;;;;;;;13.62;57.63;102210.50;5021377;28;20045;-85
2021/12/13 03:02:01;;;;;;;4.30;2.67;;;;;;;13.62;57.66;102205.91;5012417;28;20045;-84
2021/12/13 03:04:29;;;;;;;3.92;2.72;;;;;;;13.60;57.78;102206.97;5025771;28;20147;-83
2021/12/13 03:07:05;;;;;;;5.72;2.78;;;;;;;13.62;57.81;102202.31;5013416;28;20095;-84
2021/12/13 03:09:36;;;;;;;4.13;2.85;;;;;;;13.60;57.59;102199.66;5020964;28;20049;-83
2021/12/13 03:12:07;;;;;;;5.32;3.17;;;;;;;13.60;57.73;102210.56;5039337;28;20045;-84
2021/12/13 03:14:40;;;;;;;5.63;2.83;;;;;;;13.61;57.76;102214.19;5013499;28;20045;-84
2021/12/13 03:17:52;;;;;;;4.43;2.70;;;;;;;13.57;57.91;102224.41;5025919;28;20077;-84
2021/12/13 03:20:18;;;;;;;5.15;2.70;;;;;;;13.57;57.71;102226.25;5026819;28;20111;-83
2021/12/13 03:23:04;;;;;;;3.90;2.42;;;;;;;13.58;57.51;102228.03;5035489;28;20041;-84
2021/12/13 03:25:59;;;;;;;4.95;2.38;;;;;;;13.57;58.13;102223.53;5035006;28;20132;-84
2021/12/13 03:28:56;;;;;;;4.00;2.50;;;;;;;13.59;57.55;102227.03;5045645;28;20045;-84
2021/12/13 03:31:27;;;;;;;4.40;2.45;;;;;;;13.56;57.89;102225.38;5019647;28;20382;-84
2021/12/13 03:34:03;;;;;;;5.20;2.45;;;;;;;13.59;58.06;102225.19;5045004;28;20044;-84
2021/12/13 03:36:42;;;;;;;4.18;2.72;;;;;;;13.59;57.72;102230.63;5013651;28;20128;-84
2021/12/13 03:39:15;;;;;;;5.57;2.90;;;;;;;13.59;57.90;102229.75;5037830;28;20135;-84
2021/12/13 03:41:51;;;;;;;5.10;2.85;;;;;;;13.57;57.52;102229.00;5010744;28;20544;-84
2021/12/13 03:44:24;;;;;;;5.35;2.80;;;;;;;13.58;57.73;102230.75;5033058;28;20045;-84
2021/12/13 03:46:55;;;;;;;4.40;2.55;;;;;;;13.54;57.62;102227.31;5033373;28;20127;-84
2021/12/13 03:49:24;;;;;;;4.95;2.60;;;;;;;13.56;57.73;102232.69;5033236;28;20041;-84
2021/12/13 03:51:55;;;;;;;5.10;2.92;;;;;;;13.55;57.61;102231.81;5030749;28;20057;-84
2021/12/13 03:54:26;;;;;;;5.30;3.13;;;;;;;13.55;57.48;102234.53;5027083;28;20128;-85
2021/12/13 03:56:54;;;;;;;5.22;3.10;;;;;;;13.52;57.33;102236.53;5005145;28;20512;-84
2021/12/13 03:59:24;;;;;;;5.22;3.28;;;;;;;13.53;57.74;102241.03;5033740;28;20049;-84
2021/12/13 04:02:05;;;;;;;4.55;2.85;;;;;;;13.51;57.80;102245.69;5015553;28;20563;-84
2021/12/13 04:04:48;;;;;;;5.80;3.05;;;;;;;13.49;57.78;102240.34;5030102;28;20132;-83
2021/12/13 04:07:20;;;;;;;5.63;3.10;;;;;;;13.46;57.56;102245.97;5050132;28;20107;-84
2021/12/13 04:09:49;;;;;;;5.80;2.72;;;;;;;13.44;57.68;102247.91;5029089;28;20111;-84
2021/12/13 04:12:20;;;;;;;4.95;3.20;;;;;;;13.45;57.92;102238.75;5031242;28;20057;-85
2021/12/13 04:14:57;;;;;;;5.05;3.08;;;;;;;13.45;57.89;102244.19;5047729;28;20503;-85
2021/12/13 04:17:43;;;;;;;6.32;3.00;;;;;;;13.44;58.16;102242.44;5016846;28;20057;-84
2021/12/13 04:20:24;;;;;;;4.72;2.85;;;;;;;13.42;57.97;102241.66;5015928;28;20495;-84
2021/12/13 04:22:56;;;;;;;4.57;3.00;;;;;;;13.42;57.86;102235.34;5034695;28;20079;-84
2021/12/13 04:25:28;;;;;;;5.97;3.03;;;;;;;13.40;57.83;102240.00;5027425;28;20049;-84
2021/12/13 04:28:00;;;;;;;4.70;2.80;;;;;;;13.40;57.74;102237.25;5016383;28;20392;-84
2021/12/13 04:30:49;;;;;;;6.30;2.85;;;;;;;13.40;57.87;102235.41;5031639;28;20049;-85
2021/12/13 04:33:28;;;;;;;5.07;3.00;;;;;;;13.42;57.79;102243.50;5028045;28;20386;-85
2021/12/13 04:35:59;;;;;;;5.13;3.05;;;;;;;13.41;58.07;102244.47;5031759;28;20421;-84
2021/12/13 04:38:50;;;;;;;5.22;3.13;;;;;;;13.42;57.83;102243.50;5030387;28;20557;-84
2021/12/13 04:41:26;;;;;;;5.82;3.40;;;;;;;13.41;58.03;102244.47;5026515;28;20099;-84
2021/12/13 04:44:06;;;;;;;5.18;3.03;;;;;;;13.41;57.72;102247.22;5002071;28;20057;-85
2021/12/13 04:46:34;;;;;;;4.82;3.03;;;;;;;13.37;57.82;102251.94;5032046;28;20053;-84
2021/12/13 04:49:07;;;;;;;4.63;3.17;;;;;;;13.39;57.71;102246.41;5025060;28;20163;-84
2021/12/13 04:51:53;;;;;;;4.45;3.25;;;;;;;13.39;58.18;102246.41;5015950;28;20057;-84
2021/12/13 04:54:23;;;;;;;5.30;3.15;;;;;;;13.37;57.84;102249.22;5042226;28;20397;-84
2021/12/13 04:56:52;;;;;;;4.90;3.40;;;;;;;13.38;58.12;102253.72;5024007;28;20058;-84
2021/12/13 04:59:19;;;;;;;5.70;3.35;;;;;;;13.36;57.55;102246.56;5029079;28;20057;-84
2021/12/13 05:01:51;;;;;;;5.47;3.75;;;;;;;13.36;57.66;102252.03;5025920;28;20148;-85
2021/12/13 05:04:19;;;;;;;4.57;3.05;;;;;;;13.31;57.59;102247.72;5011355;28;20124;-83
2021/12/13 05:06:48;;;;;;;4.85;3.25;;;;;;;13.33;57.80;102248.53;5010114;28;20119;-83
2021/12/13 05:09:18;;;;;;;5.65;3.60;;;;;;;13.32;57.62;102249.47;5032816;28;20052;-83
2021/12/13 05:11:49;;;;;;;4.85;3.40;;;;;;;13.32;58.15;102249.47;5028426;28;20077;-83
2021/12/13 05:14:29;;;;;;;4.65;3.00;;;;;;;13.33;58.17;102247.66;5025251;28;20570;-83
2021/12/13 05:16:58;;;;;;;5.82;3.40;;;;;;;13.30;57.82;102253.25;5012121;28;20071;-83
2021/12/13 05:19:30;;;;;;;5.90;3.63;;;;;;;13.29;57.67;102249.66;5007830;28;20069;-83
2021/12/13 05:21:59;;;;;;;6.20;3.35;;;;;;;13.28;58.02;102247.00;5027033;28;20104;-83
2021/12/13 05:24:30;;;;;;;5.15;3.55;;;;;;;13.26;57.97;102244.34;5013707;28;20072;-83
2021/12/13 05:27:08;;;;;;;5.47;3.53;;;;;;;13.24;58.11;102248.16;5026615;28;20448;-83
2021/12/13 05:29:40;;;;;;;5.70;3.53;;;;;;;13.23;57.83;102249.13;5026245;28;20038;-83
2021/12/13 05:32:17;;;;;;;6.50;3.88;;;;;;;13.20;58.12;102250.16;5014297;28;20481;-83
2021/12/13 05:34:51;;;;;;;6.40;3.88;;;;;;;13.21;58.08;102256.50;5025398;28;20135;-83
2021/12/13 05:37:19;;;;;;;6.25;3.40;;;;;;;13.19;57.91;102252.97;5011115;28;20053;-83
2021/12/13 05:40:06;;;;;;;6.10;3.25;;;;;;;13.20;58.30;102246.53;5026056;28;20076;-82
2021/12/13 05:42:42;;;;;;;5.57;3.60;;;;;;;13.20;58.05;102254.72;5023109;28;20115;-83
2021/12/13 05:45:13;;;;;;;7.20;3.72;;;;;;;13.19;58.00;102247.50;5008290;28;20052;-83
2021/12/13 05:47:54;;;;;;;5.63;3.88;;;;;;;13.20;58.17;102249.28;5027941;28;20042;-83
2021/12/13 05:50:52;;;;;;;5.95;3.78;;;;;;;13.14;58.43;102250.50;5019744;28;20390;-83
2021/12/13 05:53:44;;;;;;;5.20;3.20;;;;;;;13.19;58.06;102262.03;5009909;28;20564;-82
2021/12/13 05:56:20;;;;;;;6.03;3.28;;;;;;;13.20;58.17;102263.78;5009100;28;21467;-83
2021/12/13 05:58:56;;;;;;;5.30;3.20;;;;;;;13.21;58.44;102259.22;5011449;28;20045;-82
2021/12/13 06:01:36;;;;;;;5.47;3.10;;;;;;;13.23;58.06;102262.75;5026288;28;20069;-83
2021/12/13 06:04:06;;;;;;;5.15;3.20;;;;;;;13.22;58.30;102267.31;5010207;28;20049;-83
2021/12/13 06:06:43;;;;;;;5.28;3.42;;;;;;;13.22;58.20;102270.06;5005265;28;20095;-83
2021/12/13 06:09:10;;;;;;;6.18;3.20;;;;;;;13.22;58.00;102282.81;5016328;28;20480;-83
2021/12/13 06:11:40;;;;;;;5.13;3.10;;;;;;;13.23;58.15;102277.28;5024837;28;20037;-84
2021/12/13 06:14:19;;;;;;;6.35;3.33;;;;;;;13.25;58.26;102279.91;5027167;28;20149;-83
2021/12/13 06:16:49;;;;;;;5.45;3.13;;;;;;;13.21;58.19;102272.84;5042453;28;20076;-83
2021/12/13 06:19:30;;;;;;;6.03;3.17;;;;;;;13.25;58.11;102279.91;5028240;28;20493;-85
2021/12/13 06:22:16;;;;;;;6.38;3.92;;;;;;;13.22;58.44;102278.22;5021726;28;20076;-84
2021/12/13 06:25:04;;;;;;;4.50;2.72;;;;;;;13.23;58.12;102276.38;5009609;28;20108;-84
2021/12/13 06:27:59;;;;;;;4.65;2.85;;;;;;;13.20;58.44;102279.28;5016893;28;20534;-84
2021/12/13 06:30:38;;;;;;;4.03;2.70;;;;;;;13.22;58.00;102275.50;5008887;28;20048;-83
2021/12/13 06:33:11;;;;;;;4.80;3.20;;;;;;;13.21;58.33;102276.47;5021552;28;20481;-86
2021/12/13 06:35:46;;;;;;;;;;;;;;;12.98;58.88;102281.38;5030775;28;20049;-85
2021/12/13 06:38:19;;;;;;;4.57;2.70;;;;;;;13.20;58.37;102279.28;5030952;28;19928;-84
2021/12/13 06:40:49;;;;;;;5.43;2.75;;;;;;;13.20;58.39;102280.16;5026744;28;20042;-84
2021/12/13 06:43:47;;;;;;;5.53;2.97;;;;;;;13.18;57.89;102283.91;5017085;28;20044;-83
2021/12/13 06:46:23;;;;;;;4.32;2.70;;;;;;;13.22;58.36;102277.34;5014487;28;20496;-85
2021/12/13 06:48:58;;;;;;;7.18;3.10;;;;;;;13.18;57.82;102282.06;5019242;28;20049;-85
2021/12/13 06:51:52;;;;;;;5.07;3.10;;;;;;;13.18;58.42;102281.19;5028334;28;20045;-85
2021/12/13 06:54:25;;;;;;;5.28;2.78;;;;;;;13.18;58.49;102276.63;5023059;28;20050;-84
2021/12/13 06:57:00;;;;;;;4.97;2.63;;;;;;;13.16;58.75;102277.69;5006008;28;20515;-82
2021/12/13 06:59:28;;;;;;;4.78;3.05;;;;;;;13.15;58.04;102281.38;5020984;28;20100;-82
2021/12/13 07:02:08;;;;;;;4.47;2.72;;;;;;;13.18;58.33;102276.63;5030352;28;20093;-82
2021/12/13 07:05:08;;;;;;;5.47;3.15;;;;;;;13.13;58.29;102280.53;5032267;28;20099;-82
2021/12/13 07:07:55;;;;;;;5.28;2.55;;;;;;;13.15;58.30;102276.81;5001417;28;20496;-81
2021/12/13 07:10:28;;;;;;;5.63;2.63;;;;;;;13.12;58.25;102282.38;5025458;28;20111;-83
2021/12/13 07:13:01;;;;;;;3.80;2.55;;;;;;;13.14;58.21;102283.22;5027102;28;20037;-82
2021/12/13 07:15:44;;;;;;;4.70;2.80;;;;;;;13.12;58.75;102285.13;5016420;28;20484;-77
2021/12/13 07:18:29;;;;;;;4.32;2.63;;;;;;;13.14;58.29;102285.97;5035100;28;20056;-78
2021/12/13 07:21:02;;;;;;;3.92;2.53;;;;;;;13.11;58.01;102286.06;5031442;28;20037;-79
2021/12/13 07:24:08;;;;;;;4.57;2.50;;;;;;;13.12;58.36;102287.84;5050381;28;20072;-78
2021/12/13 07:26:44;;;;;;;3.50;1.98;;;;;;;13.12;58.37;102295.13;5045980;28;20077;-78
2021/12/13 07:29:12;;;;;;;3.60;2.22;;;;;;;13.11;58.14;102309.72;5029235;28;20056;-77
2021/12/13 07:31:42;;;;;;;4.38;2.85;;;;;;;13.12;58.34;102303.31;5034894;28;20041;-77
2021/12/13 07:34:20;;;;;;;4.18;2.38;;;;;;;13.12;58.58;102304.19;5028887;28;20073;-78
2021/12/13 07:37:03;;;;;;;4.22;2.60;;;;;;;13.12;58.43;102309.66;5023286;28;20095;-77
2021/12/13 07:39:32;;;;;;;4.95;2.67;;;;;;;13.10;58.62;102306.13;5030167;28;20041;-78
2021/12/13 07:42:03;;;;;;;4.28;2.60;;;;;;;13.12;58.19;102306.94;5035269;28;20095;-77
2021/12/13 07:44:41;;;;;;;4.50;2.70;;;;;;;13.14;58.66;102299.59;5033561;28;20045;-77
2021/12/13 07:47:13;;;;;;;4.20;2.60;;;;;;;13.14;58.38;102312.34;5033494;28;20141;-77
2021/12/13 07:49:47;;;;;;;3.83;2.47;;;;;;;13.15;58.44;102316.84;5032908;28;20140;-78
2021/12/13 07:52:29;;;;;;;6.93;2.75;;;;;;;13.16;58.46;102332.25;5027114;28;20457;-78
2021/12/13 07:55:11;;;;;;;5.70;2.90;;;;;;;13.12;58.39;102328.75;5034013;28;20042;-77
2021/12/13 07:57:40;;;;;;;4.13;2.40;;;;;;;13.14;58.21;102335.03;5019747;28;20069;-78
2021/12/13 08:00:14;;;;;;;5.05;2.60;;;;;;;13.17;58.41;102334.88;5028666;28;20107;-78
2021/12/13 08:02:53;;;;;;;4.78;2.50;;;;;;;13.19;58.67;102334.78;5030614;28;20049;-79
2021/12/13 08:05:25;;;;;;;4.57;2.75;;;;;;;13.18;58.17;102341.19;5017466;28;20046;-80
2021/12/13 08:07:59;;;;;;;4.20;2.57;;;;;;;13.17;58.62;102351.25;5027364;28;20562;-79
2021/12/13 08:10:29;;;;;;;5.70;2.65;;;;;;;13.14;58.33;102348.69;5011691;28;20781;-77
2021/12/13 08:13:05;;;;;;;4.00;2.47;;;;;;;13.17;58.42;102347.63;5023419;28;20050;-77
2021/12/13 08:15:43;;;;;;;4.53;2.67;;;;;;;13.16;58.49;102354.94;5030523;28;20123;-77
2021/12/13 08:18:27;;;;;;;5.47;3.10;;;;;;;13.16;58.43;102356.78;5014491;28;20129;-75
2021/12/13 08:20:58;;;;;;;4.72;2.92;;;;;;;13.16;58.65;102363.13;5043419;28;20041;-76
2021/12/13 08:23:51;;;;;;;4.50;2.83;;;;;;;13.16;58.36;102375.88;5021618;28;20108;-77
2021/12/13 08:26:27;;;;;;;5.77;2.83;;;;;;;13.17;58.67;102369.47;5032964;28;20046;-76
2021/12/13 08:28:58;;;;;;;5.07;2.80;;;;;;;13.17;58.44;102373.06;5024404;28;20312;-77
2021/12/13 08:31:32;;;;;;;5.18;2.80;;;;;;;13.19;58.30;102371.13;5027101;28;20060;-77
2021/12/13 08:34:06;;;;;;;5.10;2.78;;;;;;;13.19;58.52;102379.28;5030541;28;20440;-77
2021/12/13 08:36:46;;;;;;;4.18;2.75;;;;;;;13.19;58.78;102373.84;5032255;28;20037;-77
2021/12/13 08:39:15;;;;;;;4.22;2.53;;;;;;;13.18;58.23;102377.53;5025206;28;20636;-77
2021/12/13 08:41:47;;;;;;;4.15;2.70;;;;;;;13.17;58.48;102375.78;5029708;28;20509;-77
2021/12/13 08:44:28;;;;;;;4.05;2.92;;;;;;;13.15;58.35;102375.00;5022441;28;20535;-77
2021/12/13 08:47:07;;;;;;;4.63;2.90;;;;;;;13.20;58.40;102372.00;5025434;28;20104;-77
2021/12/13 08:49:37;;;;;;;4.25;2.53;;;;;;;13.19;58.28;102378.41;5015952;28;20052;-78
2021/12/13 08:52:13;;;;;;;5.28;2.97;;;;;;;13.20;58.40;102378.34;5013068;28;20080;-77
2021/12/13 08:54:40;;;;;;;4.93;2.75;;;;;;;13.18;58.47;102365.75;5021171;28;20492;-78
2021/12/13 08:57:12;;;;;;;4.97;2.47;;;;;;;13.21;58.46;102363.75;5027330;28;20049;-77
2021/12/13 08:59:52;;;;;;;4.27;2.50;;;;;;;13.21;58.60;102360.13;5024696;28;20381;-77
2021/12/13 09:02:20;;;;;;;4.72;2.35;;;;;;;13.21;58.42;102363.75;5030583;28;20041;-77
2021/12/13 09:04:58;;;;;;;4.07;2.60;;;;;;;13.26;58.71;102374.38;5026931;28;20049;-78
2021/12/13 09:07:27;;;;;;;4.05;2.40;;;;;;;13.25;58.32;102368.09;5030252;28;20412;-78
2021/12/13 09:09:55;;;;;;;4.22;2.40;;;;;;;13.27;58.33;102366.13;5028823;28;20057;-76
2021/12/13 09:12:42;;;;;;;3.90;2.40;;;;;;;13.31;58.63;102373.19;5027963;28;20535;-77
2021/12/13 09:15:31;;;;;;;3.85;2.40;;;;;;;13.31;58.65;102372.31;5022102;28;20103;-78
2021/12/13 09:17:58;;;;;;;5.68;3.00;;;;;;;13.30;58.50;102368.69;5011913;28;20092;-77
2021/12/13 09:20:33;;;;;;;10.25;3.92;;;;;;;13.37;58.05;102376.53;5027409;28;20049;-77
2021/12/13 09:23:26;;;;;;;10.40;4.72;;;;;;;13.38;58.18;102371.00;5013118;28;20110;-77
2021/12/13 09:25:59;;;;;;;;;;;;;;;13.13;59.08;102376.91;5025646;28;20045;-77
2021/12/13 09:28:37;;;;;;;17.73;5.85;;;;;;;13.34;58.39;102380.34;4995318;28;19928;-78
2021/12/13 09:31:11;;;;;;;20.48;7.28;;;;;;;13.41;58.33;102389.06;5023199;28;20079;-78
2021/12/13 09:33:50;;;;;;;16.15;6.35;;;;;;;13.43;58.39;102379.81;5026829;28;20049;-77
2021/12/13 09:36:31;;;;;;;8.43;4.00;;;;;;;13.44;57.96;102381.59;5043785;28;20072;-77
2021/12/13 09:39:04;;;;;;;6.05;2.92;;;;;;;13.44;58.51;102383.44;5024566;28;20543;-77
2021/12/13 09:41:43;;;;;;;4.65;2.45;;;;;;;13.45;58.17;102383.34;5022466;28;20586;-77
2021/12/13 09:44:10;;;;;;;4.63;2.55;;;;;;;13.47;58.12;102383.28;5023342;28;20677;-76
2021/12/13 09:46:52;;;;;;;5.22;2.10;;;;;;;13.51;58.12;102398.50;5031769;28;20049;-76
2021/12/13 09:49:25;;;;;;;3.05;1.95;;;;;;;13.49;58.43;102392.25;5007427;28;20053;-76
2021/12/13 09:52:02;;;;;;;3.53;2.00;;;;;;;13.50;58.29;102397.63;5008096;28;20429;-76
2021/12/13 09:54:32;;;;;;;3.90;2.10;;;;;;;13.53;58.54;102404.75;5007298;28;20094;-76
2021/12/13 09:57:04;;;;;;;3.90;2.10;;;;;;;13.54;58.04;102396.50;5038624;28;20468;-78
2021/12/13 09:59:38;;;;;;;3.85;2.13;;;;;;;13.57;58.06;102395.44;5019537;28;20046;-78
2021/12/13 10:02:16;;;;;;;3.78;1.90;;;;;;;13.57;58.24;102388.16;5034290;28;20070;-77
2021/12/13 10:04:44;;;;;;;2.75;1.83;;;;;;;13.58;57.89;102394.50;5007638;28;20049;-78
2021/12/13 10:07:18;;;;;;;5.88;2.30;;;;;;;13.62;58.24;102396.94;5029388;28;20050;-77
2021/12/13 10:09:49;;;;;;;4.78;1.98;;;;;;;13.61;58.21;102397.91;5019967;28;20472;-79
2021/12/13 10:12:34;;;;;;;3.50;1.98;;;;;;;13.64;57.81;102403.22;5026370;28;20534;-79
2021/12/13 10:15:25;;;;;;;2.90;1.50;;;;;;;13.63;58.04;102386.91;5015016;28;20050;-78
2021/12/13 10:17:57;;;;;;;3.08;1.55;;;;;;;13.65;57.94;102385.88;5025078;28;20148;-77
2021/12/13 10:20:31;;;;;;;3.20;1.55;;;;;;;13.67;58.19;102386.66;5035962;28;20100;-78
2021/12/13 10:22:58;;;;;;;4.50;1.80;;;;;;;13.68;58.00;102390.25;5021528;28;20050;-79
2021/12/13 10:25:50;;;;;;;3.30;1.77;;;;;;;13.69;58.12;102383.84;5008548;28;20050;-78
2021/12/13 10:28:30;;;;;;;3.42;1.90;;;;;;;13.73;58.12;102388.19;5009383;28;20381;-79
2021/12/13 10:31:04;;;;;;;3.22;1.95;;;;;;;13.74;58.08;102380.88;5030118;28;20057;-78
2021/12/13 10:33:32;;;;;;;3.50;2.00;;;;;;;13.73;57.98;102382.72;5031126;28;20080;-78
2021/12/13 10:36:02;;;;;;;4.82;1.98;;;;;;;13.77;58.09;102394.34;5027903;28;20604;-78
2021/12/13 10:38:33;;;;;;;2.80;1.52;;;;;;;13.79;58.22;102389.69;5028792;28;20499;-78
2021/12/13 10:41:08;;;;;;;3.83;1.85;;;;;;;13.81;57.96;102385.03;5016953;28;20049;-78
2021/12/13 10:43:43;;;;;;;3.78;2.15;;;;;;;13.82;57.77;102392.25;5015572;28;20049;-77
2021/12/13 10:46:13;;;;;;;3.80;1.98;;;;;;;13.83;58.38;102391.28;5007877;28;20100;-78
2021/12/13 10:48:46;;;;;;;4.38;2.13;;;;;;;13.84;58.13;102385.72;5017378;28;20041;-78
2021/12/13 10:51:19;;;;;;;4.35;2.13;;;;;;;13.87;57.91;102390.13;5047820;28;20587;-78
2021/12/13 10:53:49;;;;;;;4.85;2.30;;;;;;;13.88;58.10;102380.97;5014806;28;20092;-78
2021/12/13 10:56:24;;;;;;;3.33;2.00;;;;;;;13.90;58.20;102384.50;5025242;28;20046;-77
2021/12/13 10:58:53;;;;;;;3.70;2.20;;;;;;;13.90;58.11;102382.66;5018405;28;20053;-77
2021/12/13 11:01:22;;;;;;;3.65;2.15;;;;;;;13.91;57.93;102387.16;5021209;28;20069;-77
2021/12/13 11:03:51;;;;;;;6.53;2.85;;;;;;;13.93;57.49;102376.13;5026699;28;20501;-77
2021/12/13 11:06:19;;;;;;;12.30;4.40;;;;;;;13.94;57.79;102376.03;5028336;28;20064;-76
2021/12/13 11:08:46;;;;;;;14.95;5.80;;;;;;;13.95;58.08;102376.91;5022072;28;20042;-76
2021/12/13 11:11:20;;;;;;;14.90;6.30;;;;;;;13.99;58.08;102381.25;5006724;28;20054;-79
2021/12/13 11:13:50;;;;;;;15.32;6.47;;;;;;;14.00;57.89;102383.03;5029625;28;20052;-79
2021/12/13 11:16:30;;;;;;;11.82;5.28;;;;;;;14.02;57.99;102381.06;5024983;28;20381;-78
2021/12/13 11:18:58;;;;;;;9.43;4.35;;;;;;;14.01;58.21;102380.19;5024956;28;20045;-78
2021/12/13 11:21:33;;;;;;;10.43;4.53;;;;;;;14.05;57.44;102380.91;5007943;28;20038;-78
2021/12/13 11:24:12;;;;;;;9.82;4.25;;;;;;;14.05;57.96;102384.50;5025552;28;20475;-80
2021/12/13 11:26:42;;;;;;;8.50;4.78;;;;;;;14.05;57.69;102381.78;5026216;28;20080;-79
2021/12/13 11:29:11;;;;;;;8.60;4.68;;;;;;;14.05;57.92;102381.78;5030349;28;20081;-80
2021/12/13 11:31:52;;;;;;;12.18;5.53;;;;;;;14.09;57.59;102382.47;5029276;28;20662;-79
2021/12/13 11:34:50;;;;;;;9.48;4.80;;;;;;;14.08;57.86;102381.59;5030175;28;20147;-79
2021/12/13 11:38:10;;;;;;;10.48;4.75;;;;;;;14.06;57.79;102378.09;5017349;28;20056;-80
2021/12/13 11:41:01;;;;;;;9.38;4.63;;;;;;;14.07;57.74;102382.59;4985971;28;20088;-79
2021/12/13 11:44:03;;;;;;;9.57;4.50;;;;;;;14.07;57.54;102377.13;5030431;28;20053;-79
2021/12/13 11:47:00;;;;;;;7.35;3.90;;;;;;;14.07;57.56;102384.44;5038761;28;20523;-77
2021/12/13 11:50:28;;;;;;;6.75;3.90;;;;;;;14.04;57.87;102380.00;5033501;28;20120;-79
2021/12/13 11:53:23;;;;;;;5.78;3.15;;;;;;;14.08;57.53;102376.13;4973121;28;20045;-80
2021/12/13 11:56:10;;;;;;;5.20;2.83;;;;;;;14.09;57.76;102372.44;5025817;28;20049;-76
2021/12/13 11:59:13;;;;;;;5.80;2.85;;;;;;;14.06;57.56;102367.16;5032103;28;20049;-76
2021/12/13 12:01:55;;;;;;;4.90;2.60;;;;;;;14.09;57.75;102375.16;5013929;28;20126;-76
2021/12/13 12:04:41;;;;;;;4.30;2.60;;;;;;;14.10;57.67;102374.19;5022449;28;20071;-76
2021/12/13 12:07:14;;;;;;;4.20;2.67;;;;;;;14.13;57.80;102370.41;5041340;28;20044;-76
2021/12/13 12:10:02;;;;;;;2.78;1.80;;;;;;;14.13;57.71;102377.72;5029531;28;20072;-76
2021/12/13 12:12:41;;;;;;;2.22;1.50;;;;;;;14.16;57.47;102378.44;5019232;28;20469;-76
2021/12/13 12:15:09;;;;;;;3.33;1.45;;;;;;;14.14;57.67;102374.91;5026846;28;20115;-76
2021/12/13 12:17:39;;;;;;;3.42;1.50;;;;;;;14.16;57.70;102375.72;5029652;28;20099;-77
2021/12/13 12:20:11;;;;;;;3.60;1.45;;;;;;;14.20;57.47;102376.41;5011514;28;20052;-76
2021/12/13 12:22:50;;;;;;;2.85;1.48;;;;;;;14.20;57.28;102377.28;5038439;28;20054;-77